createdAt,value
2018-08-10T00:00:05.892Z,11.07
2018-08-10T00:03:03.684Z,11.30
2018-08-10T00:06:01.731Z,11.23
2018-08-10T00:08:59.615Z,11.43
2018-08-10T00:11:57.386Z,10.80
2018-08-10T00:14:55.183Z,10.57
2018-08-10T00:21:21.772Z,10.87
2018-08-10T00:24:20.544Z,10.70
2018-08-10T00:27:23.399Z,10.50
2018-08-10T00:30:23.167Z,10.73
2018-08-10T00:33:21.748Z,9.97
2018-08-10T00:36:20.636Z,10.23
2018-08-10T00:39:21.465Z,9.70
2018-08-10T00:42:19.618Z,9.87
2018-08-10T00:45:18.432Z,9.77
2018-08-10T00:48:16.016Z,9.87
2018-08-10T00:51:13.821Z,9.47
2018-08-10T00:54:12.069Z,9.07
2018-08-10T00:57:10.223Z,9.13
2018-08-10T01:00:08.414Z,9.90
2018-08-10T01:03:06.021Z,10.20
2018-08-10T01:06:03.821Z,9.43
2018-08-10T01:09:01.518Z,10.60
2018-08-10T01:11:59.256Z,9.90
2018-08-10T01:14:57.115Z,9.90
2018-08-10T01:17:55.040Z,9.23
2018-08-10T01:20:52.842Z,9.83
2018-08-10T01:23:50.626Z,9.53
2018-08-10T01:26:48.307Z,9.43
2018-08-10T01:29:46.208Z,10.33
2018-08-10T01:32:44.191Z,11.07
2018-08-10T01:35:41.686Z,10.83
2018-08-10T01:38:39.372Z,10.43
2018-08-10T01:41:37.106Z,9.40
2018-08-10T01:44:34.858Z,9.53
2018-08-10T01:47:32.737Z,10.20
2018-08-10T01:50:30.496Z,9.67
2018-08-10T01:53:29.619Z,10.23
2018-08-10T01:56:27.357Z,9.70
2018-08-10T01:59:25.233Z,9.70
2018-08-10T02:02:22.801Z,10.47
2018-08-10T02:05:22.620Z,11.13
2018-08-10T02:08:21.456Z,10.43
2018-08-10T02:11:19.194Z,9.33
2018-08-10T02:14:16.940Z,10.30
2018-08-10T02:17:14.460Z,10.83
2018-08-10T02:20:12.260Z,9.60
2018-08-10T02:23:09.942Z,10.67
2018-08-10T02:26:07.641Z,10.60
2018-08-10T02:29:05.465Z,10.33
2018-08-10T02:32:03.139Z,10.40
2018-08-10T02:35:01.045Z,10.27
2018-08-10T02:37:59.664Z,10.23
2018-08-10T02:40:58.637Z,11.47
2018-08-10T02:43:56.542Z,11.23
2018-08-10T02:46:54.147Z,11.00
2018-08-10T02:49:52.222Z,12.20
2018-08-10T02:52:49.951Z,12.73
2018-08-10T02:55:47.646Z,11.83
2018-08-10T02:58:45.415Z,12.87
2018-08-10T03:01:43.309Z,12.87
2018-08-10T03:04:40.922Z,12.20
2018-08-10T03:07:38.855Z,12.70
2018-08-10T03:10:36.821Z,12.30
2018-08-10T03:13:34.626Z,12.07
2018-08-10T03:16:32.497Z,12.30
2018-08-10T03:19:30.210Z,12.23
2018-08-10T03:22:27.715Z,13.67
2018-08-10T03:25:25.297Z,14.10
2018-08-10T03:28:23.051Z,12.97
2018-08-10T03:31:20.743Z,13.70
2018-08-10T03:34:18.639Z,14.20
2018-08-10T03:37:17.292Z,13.23
2018-08-10T03:40:14.930Z,13.70
2018-08-10T03:43:12.999Z,13.63
2018-08-10T03:46:10.794Z,14.67
2018-08-10T03:49:08.808Z,14.63
2018-08-10T03:52:06.815Z,14.27
2018-08-10T03:55:05.000Z,14.47
2018-08-10T03:58:02.559Z,14.80
2018-08-10T04:01:00.529Z,14.10
2018-08-10T04:03:58.390Z,13.50
2018-08-10T04:06:56.043Z,14.00
2018-08-10T04:09:53.811Z,13.33
2018-08-10T04:12:51.804Z,13.47
2018-08-10T04:15:49.668Z,13.13
2018-08-10T04:18:47.290Z,13.50
2018-08-10T04:21:45.324Z,12.87
2018-08-10T04:24:43.118Z,12.13
2018-08-10T04:27:40.917Z,10.93
2018-08-10T04:30:38.738Z,10.03
2018-08-10T04:33:36.670Z,10.20
2018-08-10T04:36:35.329Z,9.40
2018-08-10T04:39:34.162Z,9.20
2018-08-10T04:42:31.935Z,9.23
2018-08-10T04:45:30.754Z,8.90
2018-08-10T04:48:28.452Z,8.67
2018-08-10T04:51:26.219Z,7.57
2018-08-10T04:54:23.997Z,7.83
2018-08-10T04:57:21.901Z,7.87
2018-08-10T05:00:21.740Z,7.50
2018-08-10T05:03:20.654Z,6.33
2018-08-10T05:06:18.313Z,6.73
2018-08-10T05:09:15.903Z,7.27
2018-08-10T05:12:13.730Z,5.77
2018-08-10T05:15:11.531Z,5.67
2018-08-10T05:18:09.362Z,6.13
2018-08-10T05:21:07.191Z,5.47
2018-08-10T05:24:05.016Z,5.33
2018-08-10T05:27:02.697Z,5.03
2018-08-10T05:30:00.578Z,4.57
2018-08-10T05:32:58.400Z,4.87
2018-08-10T05:35:56.175Z,4.63
2018-08-10T05:38:54.096Z,4.90
2018-08-10T05:41:51.720Z,4.60
2018-08-10T05:44:49.814Z,4.30
2018-08-10T05:47:47.771Z,4.77
2018-08-10T05:50:45.384Z,4.70
2018-08-10T05:53:43.156Z,4.53
2018-08-10T05:56:40.894Z,5.50
2018-08-10T05:59:39.543Z,5.40
2018-08-10T06:02:37.124Z,5.00
2018-08-10T06:05:35.096Z,5.43
2018-08-10T06:08:32.772Z,4.80
2018-08-10T06:11:30.756Z,5.70
2018-08-10T06:14:28.718Z,5.77
2018-08-10T06:17:26.470Z,5.47
2018-08-10T06:20:24.350Z,5.50
2018-08-10T06:23:21.906Z,6.60
2018-08-10T06:26:19.436Z,5.90
2018-08-10T06:29:17.279Z,6.17
2018-08-10T06:32:14.960Z,8.00
2018-08-10T06:35:12.783Z,5.80
2018-08-10T06:38:10.490Z,6.83
2018-08-10T06:41:08.279Z,6.80
2018-08-10T06:44:06.150Z,6.93
2018-08-10T06:47:05.082Z,7.90
2018-08-10T06:50:02.752Z,7.70
2018-08-10T06:53:00.595Z,7.00
2018-08-10T06:55:58.265Z,6.53
2018-08-10T06:58:55.905Z,7.30
2018-08-10T07:01:53.686Z,7.33
2018-08-10T07:04:51.460Z,7.67
2018-08-10T07:07:49.286Z,8.30
2018-08-10T07:10:46.960Z,8.10
2018-08-10T07:13:44.726Z,8.10
2018-08-10T07:16:43.873Z,9.17
2018-08-10T07:19:42.058Z,8.30
2018-08-10T07:22:39.879Z,8.53
2018-08-10T07:25:37.626Z,7.97
2018-08-10T07:28:35.448Z,7.63
2018-08-10T07:31:33.209Z,7.80
2018-08-10T07:34:30.797Z,8.43
2018-08-10T07:37:28.770Z,7.67
2018-08-10T07:40:26.547Z,8.50
2018-08-10T07:43:24.371Z,7.63
2018-08-10T07:46:22.080Z,8.50
2018-08-10T07:49:19.956Z,7.53
2018-08-10T07:52:17.956Z,7.73
2018-08-10T07:55:15.653Z,8.83
2018-08-10T07:58:13.723Z,8.07
2018-08-10T08:01:12.352Z,9.23
2018-08-10T08:04:10.188Z,10.47
2018-08-10T08:07:08.152Z,10.03
2018-08-10T08:10:05.939Z,8.90
2018-08-10T08:13:04.174Z,9.03
2018-08-10T08:16:01.794Z,9.67
2018-08-10T08:18:59.457Z,9.77
2018-08-10T08:22:04.237Z,10.03
2018-08-10T08:25:01.953Z,8.87
2018-08-10T08:27:59.947Z,10.07
2018-08-10T08:31:01.640Z,9.67
2018-08-10T08:34:13.298Z,9.13
2018-08-10T08:37:12.214Z,9.00
2018-08-10T08:40:41.104Z,9.23
2018-08-10T08:43:49.876Z,9.23
2018-08-10T08:46:47.330Z,8.10
2018-08-10T08:49:46.006Z,8.88
2018-08-10T08:52:43.821Z,8.75
2018-08-10T08:55:48.972Z,15.20
2018-08-10T08:58:48.543Z,8.18
2018-08-10T09:01:46.146Z,9.53
2018-08-10T09:05:14.083Z,8.78
2018-08-10T09:08:11.570Z,8.50
2018-08-10T09:11:11.556Z,8.45
2018-08-10T09:15:13.420Z,8.50
2018-08-10T09:18:11.180Z,8.68
2018-08-10T09:21:09.989Z,8.30
2018-08-10T09:24:09.006Z,8.78
2018-08-10T09:27:06.667Z,10.07
2018-08-10T09:30:05.546Z,9.20
2018-08-10T09:33:03.180Z,9.73
2018-08-10T09:36:00.899Z,9.38
2018-08-10T09:38:58.703Z,9.48
2018-08-10T09:41:56.323Z,9.60
2018-08-10T09:44:54.048Z,9.53
2018-08-10T09:47:52.774Z,9.13
2018-08-10T09:50:50.491Z,8.50
2018-08-10T09:53:49.631Z,8.53
2018-08-10T09:56:48.343Z,7.93
2018-08-10T09:59:46.100Z,7.15
2018-08-10T10:02:44.656Z,7.67
2018-08-10T10:05:42.309Z,9.00
2018-08-10T10:08:40.051Z,8.45
2018-08-10T10:11:37.898Z,7.40
2018-08-10T10:14:35.841Z,8.57
2018-08-10T10:17:33.861Z,8.43
2018-08-10T10:20:32.314Z,9.18
2018-08-10T10:23:31.104Z,7.58
2018-08-10T10:26:28.923Z,6.45
2018-08-10T10:29:26.848Z,6.37
2018-08-10T10:32:24.518Z,6.53
2018-08-10T10:35:22.209Z,7.58
2018-08-10T10:38:19.811Z,5.90
2018-08-10T10:41:17.471Z,5.67
2018-08-10T10:44:15.153Z,6.30
2018-08-10T10:47:12.756Z,5.50
2018-08-10T10:50:10.359Z,5.50
2018-08-10T10:53:09.334Z,5.47
2018-08-10T10:56:07.191Z,5.65
2018-08-10T10:59:06.164Z,5.47
2018-08-10T11:02:03.751Z,5.85
2018-08-10T11:05:01.842Z,6.12
2018-08-10T11:07:59.591Z,5.60
2018-08-10T11:10:57.051Z,5.95
2018-08-10T11:13:54.647Z,5.72
2018-08-10T11:16:52.520Z,6.03
2018-08-10T11:19:50.386Z,5.85
2018-08-10T11:22:49.208Z,6.05
2018-08-10T11:25:47.393Z,6.12
2018-08-10T11:28:44.985Z,5.15
2018-08-10T11:31:42.955Z,5.47
2018-08-10T11:34:41.837Z,5.10
2018-08-10T11:37:40.160Z,5.08
2018-08-10T11:40:38.222Z,5.35
2018-08-10T11:43:36.299Z,5.25
2018-08-10T11:46:34.090Z,5.80
2018-08-10T11:49:32.125Z,5.08
2018-08-10T11:52:31.261Z,5.37
2018-08-10T11:55:29.887Z,5.53
2018-08-10T11:58:28.749Z,5.47
2018-08-10T12:01:26.561Z,5.58
2018-08-10T12:04:25.353Z,4.62
2018-08-10T12:07:22.978Z,4.37
2018-08-10T12:10:20.991Z,4.40
2018-08-10T12:13:19.735Z,4.30
2018-08-10T12:16:17.981Z,3.87
2018-08-10T12:19:15.306Z,4.20
2018-08-10T12:22:12.884Z,4.28
2018-08-10T12:25:10.749Z,4.08
2018-08-10T12:28:08.480Z,4.33
2018-08-10T12:31:07.188Z,4.60
2018-08-10T12:34:04.931Z,3.60
2018-08-10T12:37:02.488Z,4.27
2018-08-10T12:40:00.051Z,4.37
2018-08-10T12:42:58.244Z,4.12
2018-08-10T12:45:55.694Z,4.50
2018-08-10T12:48:54.244Z,3.35
2018-08-10T12:51:51.899Z,3.30
2018-08-10T12:54:49.759Z,3.40
2018-08-10T12:57:48.539Z,3.70
2018-08-10T13:00:46.237Z,2.95
2018-08-10T13:03:44.090Z,2.87
2018-08-10T13:06:41.701Z,3.15
2018-08-10T13:09:39.391Z,3.10
2018-08-10T13:12:37.115Z,3.12
2018-08-10T13:15:35.119Z,3.27
2018-08-10T13:18:32.795Z,2.90
2018-08-10T13:21:30.442Z,3.30
2018-08-10T13:24:29.338Z,2.95
2018-08-10T13:27:27.066Z,2.62
2018-08-10T13:30:25.025Z,2.40
2018-08-10T13:33:22.886Z,2.70
2018-08-10T13:36:21.840Z,2.83
2018-08-10T13:39:22.572Z,3.17
2018-08-10T13:42:20.462Z,3.23
2018-08-10T13:45:20.306Z,6.37
2018-08-10T13:48:18.050Z,3.60
2018-08-10T13:51:15.664Z,3.53
2018-08-10T13:54:13.403Z,3.17
2018-08-10T13:57:10.997Z,2.27
2018-08-10T14:00:08.748Z,2.20
2018-08-10T14:03:08.373Z,1.70
2018-08-10T14:06:06.099Z,1.50
2018-08-10T14:09:03.810Z,1.43
2018-08-10T14:12:01.613Z,1.43
2018-08-10T14:14:59.356Z,1.37
2018-08-10T14:17:57.143Z,1.27
2018-08-10T14:20:54.943Z,1.20
2018-08-10T14:23:52.795Z,1.63
2018-08-10T14:26:50.294Z,1.70
2018-08-10T14:29:49.355Z,1.30
2018-08-10T14:32:47.198Z,1.20
2018-08-10T14:35:44.963Z,1.87
2018-08-10T14:38:42.766Z,1.70
2018-08-10T14:41:40.505Z,1.33
2018-08-10T14:44:38.876Z,1.20
2018-08-10T14:47:36.830Z,1.47
2018-08-10T14:50:34.699Z,1.30
2018-08-10T14:53:32.582Z,1.60
2018-08-10T14:56:30.347Z,1.70
2018-08-10T14:59:28.153Z,1.63
2018-08-10T15:02:26.047Z,1.50
2018-08-10T15:05:23.797Z,1.70
2018-08-10T15:08:21.686Z,1.57
2018-08-10T15:11:19.572Z,1.90
2018-08-10T15:14:17.256Z,1.93
2018-08-10T15:17:14.993Z,2.33
2018-08-10T15:20:12.585Z,1.77
2018-08-10T15:23:10.199Z,1.43
2018-08-10T15:26:08.070Z,1.60
2018-08-10T15:29:05.802Z,1.47
2018-08-10T15:32:03.634Z,1.70
2018-08-10T15:35:01.753Z,1.80
2018-08-10T15:37:59.541Z,1.43
2018-08-10T15:40:57.560Z,1.80
2018-08-10T15:43:55.473Z,1.43
2018-08-10T15:46:53.345Z,1.53
2018-08-10T15:49:51.188Z,1.77
2018-08-10T15:52:51.046Z,1.40
2018-08-10T15:55:49.119Z,1.70
2018-08-10T15:58:46.708Z,1.40
2018-08-10T16:01:44.292Z,1.73
2018-08-10T16:04:42.019Z,1.47
2018-08-10T16:07:39.747Z,1.70
2018-08-10T16:10:37.371Z,1.80
2018-08-10T16:13:35.344Z,1.60
2018-08-10T16:16:32.940Z,1.77
2018-08-10T16:19:30.430Z,1.20
2018-08-10T16:22:28.270Z,1.40
2018-08-10T16:25:27.204Z,1.20
2018-08-10T16:28:25.334Z,1.50
2018-08-10T16:31:23.089Z,2.10
2018-08-10T16:34:20.967Z,1.17
2018-08-10T16:37:19.674Z,1.63
2018-08-10T16:40:18.359Z,1.80
2018-08-10T16:43:15.933Z,1.40
2018-08-10T16:46:13.760Z,1.80
2018-08-10T16:49:11.735Z,1.60
2018-08-10T16:52:09.307Z,1.60
2018-08-10T16:55:07.034Z,1.50
2018-08-10T16:58:04.673Z,1.43
2018-08-10T17:01:02.293Z,1.47
2018-08-10T17:04:00.045Z,1.63
2018-08-10T17:06:57.693Z,1.63
2018-08-10T17:09:55.584Z,1.80
2018-08-10T17:12:53.259Z,1.63
2018-08-10T17:15:51.845Z,1.40
2018-08-10T17:18:49.778Z,1.40
2018-08-10T17:21:47.548Z,1.87
2018-08-10T17:24:45.431Z,1.90
2018-08-10T17:27:43.026Z,2.00
2018-08-10T17:30:40.870Z,2.40
2018-08-10T17:33:38.592Z,1.77
2018-08-10T17:36:36.294Z,1.53
2018-08-10T17:39:33.954Z,1.27
2018-08-10T17:42:31.669Z,1.50
2018-08-10T17:45:30.588Z,1.80
2018-08-10T17:48:28.574Z,1.63
2018-08-10T17:51:26.369Z,1.40
2018-08-10T17:54:25.162Z,1.50
2018-08-10T17:57:22.995Z,1.40
2018-08-10T18:00:22.782Z,1.40
2018-08-10T18:03:20.585Z,1.57
2018-08-10T18:06:18.339Z,1.57
2018-08-10T18:09:17.266Z,1.80
2018-08-10T18:12:15.018Z,1.47
2018-08-10T18:15:12.655Z,1.97
2018-08-10T18:18:10.180Z,1.30
2018-08-10T18:21:07.980Z,1.43
2018-08-10T18:24:05.690Z,2.03
2018-08-10T18:27:03.678Z,1.73
2018-08-10T18:30:02.485Z,1.17
2018-08-10T18:33:00.108Z,1.03
2018-08-10T18:35:58.023Z,1.37
2018-08-10T18:38:55.835Z,1.50
2018-08-10T18:41:53.540Z,1.80
2018-08-10T18:44:51.359Z,1.63
2018-08-10T18:47:49.049Z,2.10
2018-08-10T18:50:46.769Z,1.53
2018-08-10T18:53:44.421Z,1.33
2018-08-10T18:56:42.061Z,2.00
2018-08-10T18:59:39.959Z,1.37
2018-08-10T19:02:37.739Z,1.30
2018-08-10T19:05:44.671Z,1.50
2018-08-10T19:08:42.522Z,1.17
2018-08-10T19:11:41.242Z,1.40
2018-08-10T19:14:39.311Z,1.50
2018-08-10T19:17:36.920Z,1.40
2018-08-10T19:20:34.730Z,1.80
2018-08-10T19:23:33.599Z,1.47
2018-08-10T19:26:41.906Z,1.57
2018-08-10T19:29:39.898Z,1.50
2018-08-10T19:32:38.053Z,1.57
2018-08-10T19:35:35.738Z,1.47
2018-08-10T19:38:33.796Z,1.50
2018-08-10T19:41:31.878Z,1.67
2018-08-10T19:44:30.542Z,2.60
2018-08-10T19:47:28.098Z,1.93
2018-08-10T19:50:29.839Z,2.17
2018-08-10T19:53:28.679Z,1.20
2018-08-10T19:56:27.132Z,1.50
2018-08-10T20:02:42.854Z,1.60
2018-08-10T20:05:40.598Z,1.60
2018-08-10T20:08:38.546Z,1.40
2018-08-10T20:11:36.613Z,1.53
2018-08-10T20:14:34.291Z,1.60
2018-08-10T20:17:32.073Z,1.60
2018-08-10T20:20:31.753Z,1.43
2018-08-10T20:23:30.260Z,1.53
2018-08-10T20:26:28.317Z,1.63
2018-08-10T20:29:26.318Z,1.67
2018-08-10T20:32:24.010Z,2.13
2018-08-10T20:35:23.040Z,1.33
2018-08-10T20:38:20.850Z,1.27
2018-08-10T20:41:18.640Z,1.13
2018-08-10T20:44:16.389Z,1.10
2018-08-10T20:47:14.403Z,1.27
2018-08-10T20:50:12.106Z,1.70
2018-08-10T20:53:10.032Z,1.00
2018-08-10T20:56:08.067Z,1.27
2018-08-10T20:59:05.667Z,0.93
2018-08-10T21:02:04.184Z,1.50
2018-08-10T21:05:02.962Z,1.37
2018-08-10T21:08:00.782Z,1.50
2018-08-10T21:10:58.555Z,1.33
2018-08-10T21:13:56.172Z,1.70
2018-08-10T21:16:54.214Z,1.37
2018-08-10T21:19:51.896Z,1.40
2018-08-10T21:22:49.655Z,2.17
2018-08-10T21:25:47.246Z,1.17
2018-08-10T21:28:45.922Z,1.60
2018-08-10T21:31:43.721Z,1.30
2018-08-10T21:34:41.366Z,1.20
2018-08-10T21:37:39.304Z,1.70
2018-08-10T21:40:37.930Z,1.23
2018-08-10T21:43:36.101Z,1.37
2018-08-10T21:46:33.959Z,1.57
2018-08-10T21:49:31.544Z,1.50
2018-08-10T21:52:29.201Z,1.27
2018-08-10T21:55:27.155Z,1.87
2018-08-10T21:58:24.883Z,1.93
2018-08-10T22:01:23.504Z,1.90
2018-08-10T22:04:21.140Z,1.37
2018-08-10T22:07:19.930Z,1.20
2018-08-10T22:10:17.804Z,1.73
2018-08-10T22:13:21.424Z,1.53
2018-08-10T22:16:25.037Z,1.70
2018-08-10T22:19:23.654Z,1.43
2018-08-10T22:22:22.473Z,1.67
2018-08-10T22:25:23.034Z,1.47
2018-08-10T22:28:22.823Z,1.90
2018-08-10T22:31:21.698Z,2.40
2018-08-10T22:34:19.350Z,1.20
2018-08-10T22:37:17.036Z,1.43
2018-08-10T22:40:15.758Z,1.97
2018-08-10T22:43:13.686Z,1.27
2018-08-10T22:46:11.310Z,1.20
2018-08-10T22:49:09.037Z,1.37
2018-08-10T22:52:06.901Z,1.60
2018-08-10T22:55:05.713Z,1.43
2018-08-10T22:58:03.187Z,1.77
2018-08-10T23:01:01.122Z,2.13
2018-08-10T23:03:58.783Z,1.43
2018-08-10T23:06:56.482Z,1.07
2018-08-10T23:09:54.169Z,1.33
2018-08-10T23:12:52.790Z,1.30
2018-08-10T23:15:50.911Z,1.70
2018-08-10T23:18:48.778Z,1.30
2018-08-10T23:21:46.471Z,2.27
2018-08-10T23:24:44.183Z,1.93
2018-08-10T23:27:42.069Z,1.73
2018-08-10T23:30:39.733Z,1.50
2018-08-10T23:33:37.478Z,1.57
2018-08-10T23:36:35.130Z,1.37
2018-08-10T23:39:32.906Z,1.90
2018-08-10T23:42:30.715Z,1.60
2018-08-10T23:45:29.495Z,1.60
2018-08-10T23:48:27.315Z,1.30
2018-08-10T23:51:24.941Z,1.77
2018-08-10T23:54:22.823Z,1.57
2018-08-10T23:57:20.689Z,1.50
